Time;durP1;ratioP1;P1;durP2;ratioP2;P2;SDS_P1;SDS_P2;PMS_P1;PMS_P2;Temp;Humidity;BMP_temperature;BMP_pressure;BME280_temperature;BME280_humidity;BME280_pressure;Samples;Min_cycle;Max_cycle;Signal;HPM_P1;HPM_P2
2023/06/15 00:00:17;;;;;;;6.93;4.10;;;;;;;20.04;47.79;101724.72;5033888;28;20033;-62
2023/06/15 00:02:42;;;;;;;9.07;4.38;;;;;;;19.94;48.58;101717.72;5033272;28;20033;-62
2023/06/15 00:05:08;;;;;;;6.15;3.92;;;;;;;19.93;47.86;101716.84;5033535;28;20071;-62
2023/06/15 00:07:34;;;;;;;8.55;4.28;;;;;;;19.86;48.30;101719.63;5015669;28;20387;-63
2023/06/15 00:09:59;;;;;;;7.90;3.95;;;;;;;19.86;48.98;101720.50;5015801;28;20029;-62
2023/06/15 00:12:25;;;;;;;6.65;4.15;;;;;;;19.80;49.24;101717.03;5015649;28;20479;-62
2023/06/15 00:14:50;;;;;;;7.35;4.05;;;;;;;19.84;49.68;101719.66;5015289;28;20099;-62
2023/06/15 00:17:16;;;;;;;7.88;4.30;;;;;;;19.67;50.19;101717.19;5032267;28;20030;-62
2023/06/15 00:19:41;;;;;;;7.95;4.18;;;;;;;19.61;50.59;101711.91;5033047;28;20025;-62
2023/06/15 00:22:09;;;;;;;8.32;4.13;;;;;;;19.63;50.75;101717.25;5033015;28;20033;-63
2023/06/15 00:24:35;;;;;;;11.63;4.22;;;;;;;19.53;50.96;101719.16;5032986;28;20048;-62
2023/06/15 00:27:00;;;;;;;5.63;4.15;;;;;;;19.49;51.11;101725.44;5033315;28;20025;-62
2023/06/15 00:29:26;;;;;;;7.43;4.18;;;;;;;19.51;50.81;101726.31;5032793;28;20437;-62
2023/06/15 00:31:51;;;;;;;9.10;4.55;;;;;;;19.45;51.28;101726.38;5032954;28;20030;-62
2023/06/15 00:34:17;;;;;;;7.75;4.40;;;;;;;19.27;51.54;101725.69;5032912;28;20025;-62
2023/06/15 00:36:42;;;;;;;7.22;4.22;;;;;;;19.35;51.61;101732.75;5032969;28;20040;-62
2023/06/15 00:39:07;;;;;;;7.25;4.38;;;;;;;19.30;51.69;101727.44;5033064;28;20372;-62
2023/06/15 00:41:43;;;;;;;5.68;4.47;;;;;;;19.25;50.88;101731.97;5032820;28;20391;-62
2023/06/15 00:44:09;;;;;;;5.45;4.75;;;;;;;19.19;50.98;101732.94;5032816;28;20068;-62
2023/06/15 00:46:35;;;;;;;7.82;4.32;;;;;;;19.22;51.45;101734.66;5032772;28;20025;-62
2023/06/15 00:49:01;;;;;;;6.88;4.30;;;;;;;19.12;52.01;101741.94;5033085;28;20033;-62
2023/06/15 00:51:27;;;;;;;9.18;4.38;;;;;;;19.09;51.84;101730.34;5032741;28;20434;-62
2023/06/15 00:53:52;;;;;;;9.57;4.45;;;;;;;18.98;52.18;101735.81;5032745;28;20040;-62
2023/06/15 00:56:18;;;;;;;7.85;4.47;;;;;;;18.98;52.06;101736.72;5032458;28;20053;-62
2023/06/15 00:58:45;;;;;;;7.82;4.50;;;;;;;18.94;51.91;101740.31;5032931;28;20038;-62
2023/06/15 01:01:10;;;;;;;9.27;4.40;;;;;;;18.97;51.75;101736.69;5032773;28;20026;-62
2023/06/15 01:03:36;;;;;;;7.93;4.20;;;;;;;19.01;51.87;101735.78;5032806;28;20466;-62
2023/06/15 01:06:12;;;;;;;12.30;4.30;;;;;;;18.97;52.49;101742.97;4998653;28;20120;-62
2023/06/15 01:08:41;;;;;;;10.98;4.50;;;;;;;18.91;52.71;101739.47;5032980;28;20037;-62
2023/06/15 01:11:08;;;;;;;10.80;4.63;;;;;;;18.83;53.08;101736.84;5032844;28;20049;-62
2023/06/15 01:13:35;;;;;;;6.80;4.55;;;;;;;18.79;53.31;101727.06;5032738;28;20104;-62
2023/06/15 01:16:06;;;;;;;8.93;4.53;;;;;;;18.79;53.75;101736.88;5032531;28;20061;-62
2023/06/15 01:18:34;;;;;;;8.50;4.65;;;;;;;18.76;53.16;101730.66;5032933;28;20026;-62
2023/06/15 01:21:04;;;;;;;6.50;4.57;;;;;;;18.78;53.19;101725.28;5032707;28;20026;-62
2023/06/15 01:24:03;;;;;;;9.18;4.50;;;;;;;18.71;53.11;101740.53;5032889;28;20438;-62
2023/06/15 01:26:29;;;;;;;6.40;4.45;;;;;;;18.56;53.70;101740.63;5019731;28;20041;-62
2023/06/15 01:28:56;;;;;;;7.30;4.65;;;;;;;18.44;53.98;101735.34;5035939;28;20033;-61
2023/06/15 01:31:22;;;;;;;8.30;4.63;;;;;;;18.49;53.76;101741.56;5036135;28;20036;-62
2023/06/15 01:33:49;;;;;;;7.43;4.43;;;;;;;18.40;54.43;101742.50;5036152;28;20108;-62
2023/06/15 01:36:15;;;;;;;7.35;4.50;;;;;;;18.31;54.51;101747.94;5035957;28;20029;-61
2023/06/15 01:38:43;;;;;;;8.55;4.60;;;;;;;18.26;55.12;101747.97;5036067;28;20036;-61
2023/06/15 01:41:10;;;;;;;14.80;4.82;;;;;;;18.26;54.65;101750.66;5035854;28;20038;-61
2023/06/15 01:43:37;;;;;;;10.27;4.90;;;;;;;18.29;54.50;101752.44;5035705;28;20040;-62
2023/06/15 01:46:05;;;;;;;11.73;4.80;;;;;;;18.27;54.78;101756.88;5035863;28;20045;-61
2023/06/15 01:48:31;;;;;;;7.30;4.75;;;;;;;18.35;54.47;101764.88;5035998;28;20124;-62
2023/06/15 01:50:56;;;;;;;9.88;4.65;;;;;;;18.38;54.53;101763.06;5036009;28;20514;-62
2023/06/15 01:53:23;;;;;;;10.15;4.70;;;;;;;18.25;54.96;101756.03;5035720;28;20092;-62
2023/06/15 01:55:49;;;;;;;9.15;4.93;;;;;;;18.24;55.29;101755.13;5035489;28;20098;-62
2023/06/15 01:58:18;;;;;;;7.32;4.93;;;;;;;18.24;55.38;101752.47;5035728;28;20025;-62
2023/06/15 02:00:44;;;;;;;8.65;5.22;;;;;;;18.24;55.27;101749.78;5035410;28;20422;-62
2023/06/15 02:03:11;;;;;;;13.50;4.82;;;;;;;18.22;55.49;101748.88;5035936;28;20025;-62
2023/06/15 02:05:39;;;;;;;7.82;5.10;;;;;;;18.23;54.96;101756.00;5035487;28;20451;-62
2023/06/15 02:08:08;;;;;;;7.35;4.85;;;;;;;18.21;54.67;101746.22;5035719;28;20041;-62
2023/06/15 02:10:34;;;;;;;5.97;4.70;;;;;;;18.31;54.70;101750.63;5035429;28;20063;-62
2023/06/15 02:13:00;;;;;;;7.07;4.90;;;;;;;18.27;54.89;101748.84;5035358;28;20116;-62
2023/06/15 02:15:26;;;;;;;8.25;4.80;;;;;;;18.21;55.14;101747.13;5035035;28;20483;-62
2023/06/15 02:18:00;;;;;;;7.90;5.05;;;;;;;18.17;55.48;101747.16;5035442;28;20103;-62
2023/06/15 02:20:27;;;;;;;9.25;5.22;;;;;;;18.16;55.87;101748.06;5035124;28;20037;-62
2023/06/15 02:22:53;;;;;;;7.63;4.75;;;;;;;18.14;55.15;101753.38;5034932;28;20387;-63
2023/06/15 02:25:19;;;;;;;8.57;5.25;;;;;;;18.05;55.89;101742.75;5035075;28;20031;-61
2023/06/15 02:27:45;;;;;;;7.90;4.88;;;;;;;18.02;55.81;101750.78;5035468;28;20121;-62
2023/06/15 02:30:11;;;;;;;7.65;4.63;;;;;;;18.09;55.82;101760.56;5034957;28;20490;-62
2023/06/15 02:32:39;;;;;;;6.25;5.05;;;;;;;18.05;55.83;101761.47;5034933;28;20040;-62
2023/06/15 02:35:07;;;;;;;7.72;4.70;;;;;;;18.06;56.42;101759.69;5034946;28;20037;-62
2023/06/15 02:37:33;;;;;;;9.07;4.63;;;;;;;17.97;56.88;101774.88;5034839;28;20482;-62
2023/06/15 02:39:58;;;;;;;6.78;5.05;;;;;;;17.92;56.83;101771.34;5034244;28;20031;-62
2023/06/15 02:42:24;;;;;;;7.78;5.43;;;;;;;17.88;56.27;101768.69;5034727;28;20026;-62
2023/06/15 02:44:49;;;;;;;11.77;5.38;;;;;;;17.96;55.88;101773.09;5034641;28;20116;-62
2023/06/15 02:47:15;;;;;;;8.52;5.18;;;;;;;17.97;56.05;101774.00;5016696;28;20031;-62
2023/06/15 02:49:40;;;;;;;9.60;5.13;;;;;;;17.94;56.12;101777.59;5034823;28;20044;-62
2023/06/15 02:52:06;;;;;;;7.68;4.80;;;;;;;17.92;56.65;101778.47;5034836;28;20462;-62
2023/06/15 02:54:31;;;;;;;7.05;5.32;;;;;;;17.84;57.05;101777.63;5034270;28;20052;-62
2023/06/15 02:56:57;;;;;;;7.25;5.10;;;;;;;17.76;57.48;101769.63;5034491;28;20026;-62
2023/06/15 02:59:25;;;;;;;6.72;5.10;;;;;;;17.72;57.64;101771.38;5034368;28;20065;-62
2023/06/15 03:01:53;;;;;;;6.95;5.13;;;;;;;17.67;58.10;101777.66;5034252;28;20390;-62
2023/06/15 03:04:22;;;;;;;9.63;5.60;;;;;;;17.62;57.96;101768.78;5034436;28;20064;-62
2023/06/15 03:06:50;;;;;;;7.85;5.72;;;;;;;17.53;57.89;101775.91;5034613;28;20033;-62
2023/06/15 03:09:20;;;;;;;12.80;5.88;;;;;;;17.48;57.89;101775.06;5034270;28;20025;-62
2023/06/15 03:11:46;;;;;;;8.38;5.28;;;;;;;17.43;58.11;101771.50;5034194;28;20029;-62
2023/06/15 03:14:11;;;;;;;8.65;5.53;;;;;;;17.44;58.16;101775.06;5034174;28;20026;-62
2023/06/15 03:16:41;;;;;;;13.27;5.30;;;;;;;17.50;58.03;101773.25;5033899;28;20022;-63
2023/06/15 03:19:07;;;;;;;10.20;5.65;;;;;;;17.47;57.97;101772.38;5033886;28;20068;-62
2023/06/15 03:21:32;;;;;;;13.38;5.22;;;;;;;17.36;58.91;101772.41;5033648;28;20036;-61
2023/06/15 03:23:58;;;;;;;12.38;5.57;;;;;;;17.33;58.90;101774.19;5033572;28;20021;-62
2023/06/15 03:26:26;;;;;;;9.95;5.30;;;;;;;17.38;58.71;101775.94;5033460;28;20105;-62
2023/06/15 03:28:53;;;;;;;10.15;5.57;;;;;;;17.37;58.75;101781.31;5033765;28;20645;-62
2023/06/15 03:31:19;;;;;;;10.35;5.22;;;;;;;17.45;58.33;101780.41;5033339;28;20094;-62
2023/06/15 03:33:48;;;;;;;9.75;5.40;;;;;;;17.41;58.45;101775.06;5033302;28;20033;-62
2023/06/15 03:36:14;;;;;;;10.07;5.63;;;;;;;17.40;58.86;101781.31;5033309;28;20091;-62
2023/06/15 03:38:42;;;;;;;13.00;5.40;;;;;;;17.41;59.21;101780.41;5033084;28;20030;-62
2023/06/15 03:41:08;;;;;;;10.27;5.50;;;;;;;17.34;60.23;101781.31;5033435;28;20041;-62
2023/06/15 03:43:37;;;;;;;9.40;5.30;;;;;;;17.34;59.99;101775.97;5033134;28;20128;-62
2023/06/15 03:46:04;;;;;;;9.38;5.60;;;;;;;17.37;59.88;101773.28;5032932;28;20061;-62
2023/06/15 03:48:29;;;;;;;10.10;5.43;;;;;;;17.38;59.45;101772.38;5033326;28;20383;-62
2023/06/15 03:50:56;;;;;;;7.20;5.38;;;;;;;17.36;59.80;101772.41;5032571;28;20399;-61
2023/06/15 03:53:22;;;;;;;9.07;5.85;;;;;;;17.32;59.99;101777.75;5032939;28;20044;-61
2023/06/15 03:55:47;;;;;;;9.88;5.63;;;;;;;17.33;59.99;101776.88;5032774;28;20046;-61
2023/06/15 03:58:14;;;;;;;9.30;6.30;;;;;;;17.32;60.12;101783.09;5033084;28;20482;-61
2023/06/15 04:00:40;;;;;;;8.65;6.13;;;;;;;17.33;59.97;101776.88;5032733;28;20390;-61
2023/06/15 04:03:06;;;;;;;9.23;5.45;;;;;;;17.44;59.14;101780.41;5032724;28;20068;-62
2023/06/15 04:05:32;;;;;;;9.65;6.00;;;;;;;17.42;59.73;101776.84;5032831;28;20025;-61
2023/06/15 04:07:59;;;;;;;11.27;6.03;;;;;;;17.41;59.89;101783.09;5015069;28;20056;-62
2023/06/15 04:10:25;;;;;;;9.82;5.80;;;;;;;17.35;60.50;101775.09;5032753;28;20116;-61
2023/06/15 04:12:51;;;;;;;9.18;6.03;;;;;;;17.46;59.99;101789.28;5032785;28;20184;-61
2023/06/15 04:15:16;;;;;;;7.95;6.10;;;;;;;17.56;59.17;101792.81;5032456;28;20029;-62
2023/06/15 04:17:42;;;;;;;9.48;6.07;;;;;;;17.56;58.91;101790.16;5032721;28;20025;-61
2023/06/15 04:20:08;;;;;;;8.82;6.53;;;;;;;17.60;58.77;101783.91;5032916;28;20032;-61
2023/06/15 04:22:34;;;;;;;7.75;6.30;;;;;;;17.59;58.74;101790.16;5032621;28;20025;-62
2023/06/15 04:25:00;;;;;;;9.07;6.60;;;;;;;17.66;58.69;101786.56;5032811;28;20040;-61
2023/06/15 04:27:27;;;;;;;7.18;5.95;;;;;;;17.68;58.99;101803.47;5032619;28;20446;-61
2023/06/15 04:29:53;;;;;;;7.95;6.28;;;;;;;17.63;59.27;101808.84;5032623;28;20163;-61
2023/06/15 04:32:19;;;;;;;7.60;6.28;;;;;;;17.68;59.14;101806.16;5032855;28;20402;-61
2023/06/15 04:34:45;;;;;;;10.27;6.50;;;;;;;17.66;59.70;101813.31;5032703;28;20471;-61
2023/06/15 04:37:11;;;;;;;10.18;6.60;;;;;;;17.62;60.13;101800.84;5032543;28;20219;-61
2023/06/15 04:39:37;;;;;;;10.73;6.60;;;;;;;17.67;59.66;101807.06;5032384;28;20033;-61
2023/06/15 04:42:03;;;;;;;10.27;6.70;;;;;;;17.72;59.59;101815.94;5032344;28;20038;-62
2023/06/15 04:44:29;;;;;;;9.73;6.90;;;;;;;17.88;59.15;101815.03;5032675;28;20036;-61
2023/06/15 04:46:55;;;;;;;11.50;7.03;;;;;;;18.04;58.58;101818.53;5031876;28;20025;-61
2023/06/15 04:49:20;;;;;;;14.57;7.57;;;;;;;18.12;57.95;101815.84;5032368;28;20049;-61
2023/06/15 04:51:48;;;;;;;13.73;7.65;;;;;;;18.30;57.33;101821.09;5032628;28;20144;-62
2023/06/15 04:54:13;;;;;;;12.90;8.23;;;;;;;18.38;56.80;101816.59;5032422;28;20041;-62
2023/06/15 04:56:39;;;;;;;12.32;8.23;;;;;;;18.41;57.71;101823.69;5032302;28;20034;-61
2023/06/15 04:59:04;;;;;;;15.52;8.45;;;;;;;18.43;56.68;101827.25;5032567;28;20079;-62
2023/06/15 05:01:29;;;;;;;13.57;9.05;;;;;;;18.46;57.09;101819.22;5032347;28;20030;-62
2023/06/15 05:03:55;;;;;;;13.63;8.48;;;;;;;18.64;56.52;101824.44;5035804;28;20386;-62
2023/06/15 05:06:20;;;;;;;12.15;9.48;;;;;;;18.82;56.14;101818.09;5036366;28;20025;-61
2023/06/15 05:08:46;;;;;;;11.38;9.05;;;;;;;18.87;56.51;101824.28;5036054;28;20033;-62
2023/06/15 05:11:11;;;;;;;13.38;9.20;;;;;;;18.95;55.74;101827.81;5018618;28;20033;-63
2023/06/15 05:13:37;;;;;;;13.88;9.02;;;;;;;19.11;55.89;101825.88;5036007;28;20372;-61
2023/06/15 05:16:04;;;;;;;14.27;9.13;;;;;;;19.13;55.30;101826.75;5036033;28;20150;-61
2023/06/15 05:18:29;;;;;;;14.13;9.52;;;;;;;19.31;55.02;101832.84;5035958;28;20025;-61
2023/06/15 05:20:55;;;;;;;16.73;8.98;;;;;;;19.54;53.91;101833.50;5035746;28;20511;-61
2023/06/15 05:23:21;;;;;;;18.08;9.38;;;;;;;19.63;54.77;101832.56;5035564;28;20029;-61
2023/06/15 05:25:47;;;;;;;10.88;8.80;;;;;;;19.68;54.34;101828.03;5036028;28;20029;-62
2023/06/15 05:28:12;;;;;;;15.02;8.70;;;;;;;19.76;54.85;101828.84;5035596;28;20033;-62
2023/06/15 05:30:38;;;;;;;11.00;8.13;;;;;;;19.94;54.10;101827.72;5035366;28;20060;-61
2023/06/15 05:33:04;;;;;;;15.30;7.75;;;;;;;20.07;54.04;101826.66;5036035;28;20029;-61
2023/06/15 05:35:29;;;;;;;14.40;8.82;;;;;;;20.10;52.67;101823.94;5035694;28;20030;-62
2023/06/15 05:37:57;;;;;;;12.55;8.63;;;;;;;20.18;52.44;101826.53;5035814;28;20129;-62
2023/06/15 05:40:22;;;;;;;15.80;8.68;;;;;;;20.33;52.33;101830.78;5035575;28;20029;-62
2023/06/15 05:42:47;;;;;;;11.95;8.73;;;;;;;20.50;51.95;101836.84;5035379;28;20483;-62
2023/06/15 05:45:13;;;;;;;13.82;8.70;;;;;;;20.62;51.88;101841.16;5035254;28;20033;-62
2023/06/15 05:47:38;;;;;;;11.77;8.32;;;;;;;20.72;50.84;101838.28;5035460;28;20022;-62
2023/06/15 05:50:04;;;;;;;16.95;8.93;;;;;;;20.84;50.76;101834.53;5035390;28;20071;-62
2023/06/15 05:52:29;;;;;;;17.92;8.93;;;;;;;20.96;50.39;101838.81;5035564;28;20026;-61
2023/06/15 05:54:55;;;;;;;12.32;8.73;;;;;;;21.21;49.63;101837.50;5034812;28;20119;-61
2023/06/15 05:57:20;;;;;;;16.77;9.23;;;;;;;21.40;49.35;101839.88;5035231;28;20041;-62
2023/06/15 05:59:48;;;;;;;16.75;8.82;;;;;;;21.45;48.69;101844.25;5035330;28;20029;-61
2023/06/15 06:02:14;;;;;;;17.73;8.43;;;;;;;21.77;48.75;101837.38;5035208;28;20029;-62
2023/06/15 06:04:40;;;;;;;14.43;8.70;;;;;;;21.90;49.05;101838.03;5035507;28;20051;-62
2023/06/15 06:07:06;;;;;;;17.20;8.57;;;;;;;22.12;47.36;101839.38;5034951;28;20064;-62
2023/06/15 06:09:36;;;;;;;16.38;8.90;;;;;;;22.25;47.87;101845.38;5034827;28;20609;-61
2023/06/15 06:12:02;;;;;;;11.85;8.40;;;;;;;22.44;45.38;101840.44;5034759;28;20083;-61
2023/06/15 06:14:28;;;;;;;18.38;8.65;;;;;;;22.62;45.81;101836.47;5034077;28;20034;-61
2023/06/15 06:16:58;;;;;;;14.25;8.70;;;;;;;22.70;45.98;101837.19;5034518;28;20025;-61
2023/06/15 06:19:24;;;;;;;14.85;8.65;;;;;;;22.89;45.82;101826.84;5034959;28;20025;-61
2023/06/15 06:21:49;;;;;;;12.82;8.45;;;;;;;22.97;46.01;101831.13;5034501;28;20025;-61
2023/06/15 06:24:15;;;;;;;16.27;8.30;;;;;;;23.10;45.13;101841.63;5034645;28;20036;-61
2023/06/15 06:26:41;;;;;;;14.82;9.07;;;;;;;23.25;44.17;101838.50;5034719;28;20052;-61
2023/06/15 06:29:06;;;;;;;14.02;8.50;;;;;;;23.35;44.41;101833.78;5034428;28;20036;-62
2023/06/15 06:31:32;;;;;;;13.40;8.48;;;;;;;23.53;43.52;101840.50;5034466;28;20064;-62
2023/06/15 06:33:58;;;;;;;15.88;8.20;;;;;;;23.64;43.69;101828.47;5034307;28;20049;-61
2023/06/15 06:36:25;;;;;;;13.40;8.10;;;;;;;23.89;43.20;101839.47;5034452;28;20076;-62
2023/06/15 06:38:50;;;;;;;12.38;7.85;;;;;;;24.02;42.54;101831.91;5034444;28;20048;-61
2023/06/15 06:41:16;;;;;;;12.48;8.13;;;;;;;24.16;42.67;101828.81;5034364;28;20361;-61
2023/06/15 06:43:41;;;;;;;13.45;8.70;;;;;;;24.21;43.08;101833.13;5016909;28;20068;-61
2023/06/15 06:46:07;;;;;;;14.60;8.32;;;;;;;24.35;41.66;101843.50;5034170;28;20040;-62
2023/06/15 06:48:32;;;;;;;15.32;8.55;;;;;;;24.61;41.31;101837.31;5034224;28;20120;-61
2023/06/15 06:50:58;;;;;;;12.93;7.90;;;;;;;24.76;42.04;101835.97;5034237;28;20040;-62
2023/06/15 06:53:23;;;;;;;14.05;8.23;;;;;;;24.95;41.00;101837.09;5034524;28;20032;-61
2023/06/15 06:55:49;;;;;;;15.93;8.38;;;;;;;25.13;40.56;101832.91;5016083;28;20128;-62
2023/06/15 06:58:14;;;;;;;16.23;8.25;;;;;;;25.29;39.98;101841.41;5034450;28;20042;-62
2023/06/15 07:00:40;;;;;;;14.27;8.32;;;;;;;25.48;39.88;101839.84;5034196;28;20018;-62
2023/06/15 07:03:07;;;;;;;12.15;8.85;;;;;;;25.59;40.15;101844.84;5034209;28;20160;-63
2023/06/15 07:05:33;;;;;;;14.60;7.45;;;;;;;25.77;38.65;101847.84;5034182;28;20029;-62
2023/06/15 07:07:59;;;;;;;9.57;7.35;;;;;;;25.96;38.33;101848.94;5033962;28;20032;-62
2023/06/15 07:10:24;;;;;;;14.38;7.28;;;;;;;26.09;37.78;101839.41;5033909;28;20026;-62
2023/06/15 07:12:54;;;;;;;15.38;7.35;;;;;;;26.22;37.89;101843.41;5033998;28;20029;-62
2023/06/15 07:15:20;;;;;;;12.43;6.93;;;;;;;26.36;37.47;101839.28;5033914;28;20068;-62
2023/06/15 07:17:46;;;;;;;12.00;6.88;;;;;;;26.62;37.88;101847.28;5033917;28;20403;-62
2023/06/15 07:20:11;;;;;;;13.02;6.45;;;;;;;26.80;36.35;101831.22;5033995;28;20120;-62
2023/06/15 07:22:36;;;;;;;13.52;7.35;;;;;;;26.97;36.54;101842.25;5033665;28;20045;-62
2023/06/15 07:25:02;;;;;;;16.98;7.10;;;;;;;27.04;35.76;101838.31;5033758;28;20147;-62
2023/06/15 07:27:27;;;;;;;14.35;6.43;;;;;;;27.00;35.04;101842.13;5033583;28;20037;-62
2023/06/15 07:29:53;;;;;;;12.27;6.50;;;;;;;27.14;34.52;101841.56;5033637;28;20080;-62
2023/06/15 07:32:18;;;;;;;12.15;6.07;;;;;;;27.37;34.03;101833.31;5033751;28;20112;-62
2023/06/15 07:34:44;;;;;;;15.10;6.97;;;;;;;27.46;34.38;101846.50;5016294;28;20454;-61
2023/06/15 07:37:10;;;;;;;13.13;5.63;;;;;;;27.51;32.87;101845.41;5033671;28;20104;-62
2023/06/15 07:39:36;;;;;;;8.98;5.28;;;;;;;27.55;33.28;101849.75;5033366;28;20563;-62
2023/06/15 07:42:02;;;;;;;9.27;5.40;;;;;;;27.41;33.91;101843.09;5033158;28;20387;-62
2023/06/15 07:44:28;;;;;;;9.43;5.13;;;;;;;27.62;32.01;101845.78;5033167;28;20025;-62
2023/06/15 07:46:53;;;;;;;9.07;4.80;;;;;;;27.74;32.03;101842.56;5033230;28;20037;-61
2023/06/15 07:49:18;;;;;;;10.43;4.65;;;;;;;27.95;30.63;101841.56;5015409;28;20022;-62
2023/06/15 07:51:45;;;;;;;12.73;4.25;;;;;;;28.11;31.40;101832.72;5033202;28;20030;-61
2023/06/15 07:54:11;;;;;;;9.60;3.92;;;;;;;28.35;30.34;101830.66;5032972;28;20037;-62
2023/06/15 07:56:36;;;;;;;8.90;4.35;;;;;;;28.44;29.09;101838.44;5032752;28;20111;-63
2023/06/15 07:59:02;;;;;;;13.38;4.35;;;;;;;28.54;30.74;101841.56;5033085;28;20057;-62
2023/06/15 08:01:27;;;;;;;11.02;4.20;;;;;;;28.79;29.20;101839.41;5033008;28;20463;-62
2023/06/15 08:03:52;;;;;;;8.95;3.65;;;;;;;28.94;29.71;101837.75;5015051;28;20441;-62
2023/06/15 08:06:18;;;;;;;6.75;3.83;;;;;;;28.76;30.02;101835.97;5032891;28;20021;-62
2023/06/15 08:08:44;;;;;;;9.07;3.85;;;;;;;28.86;28.51;101842.69;5032821;28;20034;-62
2023/06/15 08:11:10;;;;;;;5.68;3.63;;;;;;;28.94;28.33;101843.19;5032615;28;20033;-62
2023/06/15 08:13:37;;;;;;;8.50;4.05;;;;;;;29.10;29.06;101840.63;5032770;28;20079;-62
2023/06/15 08:16:05;;;;;;;9.10;3.75;;;;;;;29.08;27.43;101848.88;5032313;28;20436;-62
2023/06/15 08:18:31;;;;;;;10.10;4.03;;;;;;;29.09;26.95;101837.03;5032980;28;20026;-62
2023/06/15 08:20:56;;;;;;;14.80;3.85;;;;;;;29.31;26.06;101838.63;5032870;28;20075;-62
2023/06/15 08:23:22;;;;;;;9.65;3.60;;;;;;;29.13;26.47;101837.75;5032862;28;20479;-63
2023/06/15 08:25:47;;;;;;;8.18;3.65;;;;;;;29.11;26.22;101837.81;5032578;28;20459;-62
2023/06/15 08:28:13;;;;;;;7.38;3.70;;;;;;;29.32;26.80;101848.56;5032495;28;20029;-62
2023/06/15 08:30:38;;;;;;;9.68;3.72;;;;;;;29.41;25.93;101848.94;5032453;28;20034;-62
2023/06/15 08:33:04;;;;;;;8.27;4.10;;;;;;;29.69;26.40;101842.09;5014756;28;20044;-62
2023/06/15 08:35:29;;;;;;;8.93;3.90;;;;;;;29.82;28.70;101845.91;5032983;28;20104;-62
2023/06/15 08:37:55;;;;;;;9.18;3.67;;;;;;;30.07;27.08;101845.44;5032237;28;20486;-63
2023/06/15 08:40:20;;;;;;;7.90;3.80;;;;;;;30.21;25.45;101846.56;5015055;28;20132;-62
2023/06/15 08:42:46;;;;;;;8.32;3.60;;;;;;;30.21;24.39;101841.97;5032657;28;20021;-62
2023/06/15 08:45:12;;;;;;;9.68;3.20;;;;;;;30.47;25.17;101839.63;5032632;28;20095;-61
2023/06/15 08:47:39;;;;;;;8.07;3.60;;;;;;;30.47;24.84;101831.44;5032115;28;20427;-62
2023/06/15 08:50:06;;;;;;;9.43;3.95;;;;;;;30.60;25.00;101837.97;5032333;28;20026;-62
2023/06/15 08:52:33;;;;;;;10.07;3.72;;;;;;;30.87;25.07;101838.22;5014475;28;20126;-61
2023/06/15 08:55:01;;;;;;;10.25;3.95;;;;;;;30.63;25.32;101827.75;5032021;28;20135;-62
2023/06/15 08:57:27;;;;;;;8.63;3.45;;;;;;;30.70;25.32;101833.72;5032575;28;20083;-61
2023/06/15 08:59:53;;;;;;;7.43;3.72;;;;;;;30.93;23.93;101827.84;5032251;28;20055;-62
2023/06/15 09:02:20;;;;;;;10.75;3.47;;;;;;;31.21;23.52;101828.03;5032495;28;20041;-61
2023/06/15 09:04:49;;;;;;;12.25;3.53;;;;;;;31.51;24.41;101837.09;5032542;28;20029;-61
2023/06/15 09:07:14;;;;;;;12.60;3.90;;;;;;;31.70;23.96;101825.06;5014740;28;20385;-61
2023/06/15 09:10:08;;;;;;;8.68;3.70;;;;;;;32.19;23.98;101830.16;5032203;28;20030;-61
2023/06/15 09:12:33;;;;;;;9.60;3.63;;;;;;;32.05;23.38;101834.66;5032227;28;20037;-61
2023/06/15 09:14:59;;;;;;;7.70;3.45;;;;;;;32.02;22.38;101829.38;5032117;28;20483;-63
2023/06/15 09:17:27;;;;;;;7.30;3.80;;;;;;;32.19;22.76;101822.81;5031993;28;20029;-62
2023/06/15 09:19:53;;;;;;;8.35;3.72;;;;;;;32.28;23.67;101827.69;5032435;28;20029;-62
2023/06/15 09:22:18;;;;;;;10.18;3.53;;;;;;;32.05;23.82;101828.31;5031976;28;20033;-63
2023/06/15 09:24:45;;;;;;;8.23;3.45;;;;;;;32.25;22.36;101824.28;5032337;28;20034;-62
2023/06/15 09:27:17;;;;;;;8.27;4.00;;;;;;;32.02;22.54;101831.22;5032421;28;20030;-62
2023/06/15 09:30:03;;;;;;;20.02;4.50;;;;;;;31.37;23.38;101824.31;5032399;28;20033;-62
2023/06/15 09:32:29;;;;;;;14.80;4.07;;;;;;;30.68;23.53;101827.47;5032212;28;20055;-62
2023/06/15 09:34:58;;;;;;;11.60;4.20;;;;;;;30.55;24.94;101827.31;5032377;28;20029;-62
2023/06/15 09:37:25;;;;;;;18.63;3.97;;;;;;;30.59;24.67;101823.44;5032023;28;20029;-63
2023/06/15 09:39:52;;;;;;;12.73;3.90;;;;;;;30.80;24.61;101828.66;5032333;28;20082;-62
2023/06/15 09:42:23;;;;;;;10.18;3.83;;;;;;;31.22;23.27;101821.59;5031824;28;20029;-62
2023/06/15 09:44:53;;;;;;;9.35;3.58;;;;;;;31.21;24.08;101811.63;5032380;28;20062;-62
2023/06/15 09:47:19;;;;;;;7.68;3.83;;;;;;;30.84;22.97;101813.88;5031626;28;20033;-62
2023/06/15 09:49:45;;;;;;;10.77;3.92;;;;;;;30.63;24.76;101822.28;5033537;28;20033;-62
2023/06/15 09:52:14;;;;;;;12.75;3.80;;;;;;;30.68;23.95;101817.44;5035697;28;20034;-62
2023/06/15 09:54:39;;;;;;;6.95;3.60;;;;;;;30.68;24.32;101822.03;5035210;28;20064;-62
2023/06/15 09:57:06;;;;;;;10.32;3.90;;;;;;;30.57;24.50;101824.47;5035190;28;20049;-63
2023/06/15 09:59:32;;;;;;;7.13;3.70;;;;;;;30.53;24.62;101822.91;5035458;28;20041;-62
2023/06/15 10:01:59;;;;;;;6.10;3.70;;;;;;;30.39;24.48;101823.69;5035013;28;20356;-62
2023/06/15 10:04:31;;;;;;;12.00;3.90;;;;;;;29.98;24.67;101815.97;5035212;28;20036;-62
2023/06/15 10:07:04;;;;;;;13.82;3.72;;;;;;;29.73;26.17;101816.44;5035070;28;20034;-63
2023/06/15 10:09:55;;;;;;;8.40;3.53;;;;;;;29.75;25.24;101821.78;5034951;28;20041;-62
2023/06/15 10:12:25;;;;;;;7.40;3.75;;;;;;;30.44;25.84;101818.84;5028432;28;20107;-62
2023/06/15 10:14:56;;;;;;;10.45;3.70;;;;;;;30.91;22.51;101818.84;5035064;28;20126;-62
2023/06/15 10:17:30;;;;;;;7.65;3.70;;;;;;;31.04;22.29;101813.53;5034844;28;20025;-62
2023/06/15 10:20:08;;;;;;;8.25;3.55;;;;;;;30.67;23.64;101812.09;5035040;28;20094;-62
2023/06/15 10:22:56;;;;;;;7.15;3.90;;;;;;;30.53;23.64;101812.00;5034890;28;20116;-62
2023/06/15 10:25:22;;;;;;;9.80;3.90;;;;;;;30.50;23.61;101815.78;5035122;28;20396;-62
2023/06/15 10:27:48;;;;;;;7.57;3.53;;;;;;;30.26;23.65;101800.81;5034915;28;20029;-62
2023/06/15 10:30:42;;;;;;;10.88;3.60;;;;;;;30.62;24.10;101811.44;5034987;28;20034;-62
2023/06/15 10:33:19;;;;;;;7.20;3.85;;;;;;;30.84;23.31;101813.88;5034705;28;20111;-63
2023/06/15 10:35:57;;;;;;;10.77;3.92;;;;;;;30.71;22.96;101810.03;5035122;28;20018;-62
2023/06/15 10:38:38;;;;;;;8.30;3.70;;;;;;;30.79;23.07;101807.75;5034910;28;20122;-62
2023/06/15 10:41:05;;;;;;;6.90;3.80;;;;;;;30.90;22.44;101817.09;5034571;28;20451;-62
2023/06/15 10:43:30;;;;;;;8.05;3.83;;;;;;;30.80;24.22;101817.75;5034849;28;20107;-62
2023/06/15 10:45:56;;;;;;;6.25;3.72;;;;;;;30.80;22.91;101817.75;5034263;28;20129;-62
2023/06/15 10:48:27;;;;;;;7.85;4.00;;;;;;;30.63;22.89;101811.38;5034491;28;20501;-62
2023/06/15 10:51:02;;;;;;;9.93;3.85;;;;;;;30.68;23.40;101805.66;5034641;28;20021;-62
2023/06/15 10:53:29;;;;;;;9.18;3.65;;;;;;;30.90;23.74;101808.91;5016895;28;20030;-62
2023/06/15 10:55:58;;;;;;;8.52;3.80;;;;;;;31.47;22.54;101802.75;5016206;28;20447;-62
2023/06/15 10:58:26;;;;;;;6.32;3.70;;;;;;;31.81;22.64;101801.50;5034375;28;20030;-62
2023/06/15 11:01:13;;;;;;;10.55;4.07;;;;;;;32.36;21.97;101806.19;5033526;28;20033;-62
2023/06/15 11:03:42;;;;;;;13.05;4.00;;;;;;;32.54;22.10;101808.72;5034587;28;20036;-62
2023/06/15 11:06:13;;;;;;;8.27;3.50;;;;;;;32.89;20.21;101812.72;5034022;28;20045;-62
2023/06/15 11:08:46;;;;;;;9.00;4.00;;;;;;;33.06;21.26;101800.63;5034100;28;20092;-62
2023/06/15 11:11:12;;;;;;;8.30;3.90;;;;;;;32.85;20.96;101804.81;5034255;28;20041;-63
2023/06/15 11:13:57;;;;;;;12.77;4.20;;;;;;;33.09;21.62;101797.66;5033906;28;20446;-62
2023/06/15 11:16:28;;;;;;;9.32;3.90;;;;;;;33.26;21.27;101804.72;5033947;28;20022;-62
2023/06/15 11:18:59;;;;;;;11.13;3.97;;;;;;;33.60;20.66;101810.59;5016118;28;20037;-63
2023/06/15 11:21:27;;;;;;;7.22;4.00;;;;;;;34.01;20.05;101807.66;5033736;28;20025;-62